首页
METAR-TAF:

METAR-TAF

机场 :

Gainesville Municipal Airport

蓋恩斯維爾, 得克萨斯州, 美国

纬度: 33-39-05N, 经度: 097-11-49W, 海拔: 256米

当前天气观测

该预报发布于22分钟前的10:35 UTC
静风
温度 20°C
湿度 100%
气压 1016 hPa
能見度: 16.1公里
天空无云

METAR: KGLE 151035Z AUTO 00000KT 10SM CLR 20/20 A2999 RMK AO2 T02020202 PWINO

时间: 05:57 (10:57 UTC)


TAF: 丢失

超过4000个机场的气象观测和天气预报(METAR&TAF报告)。

可查询的气象台以黄色和红色小点在地图上表示。

将鼠标移到小点上方,可查看气象台名称。

然后点击查看天气观测和预报。

如需切换地图:点击带黑十字的绿色按钮放大地图;点击带横线的绿色按钮缩小地图;或者点击绿色箭头查看邻近地区的地图。


METAR-TAF: